createdAt,value
2022-09-30T00:02:24.758Z,82.31
2022-09-30T00:07:26.918Z,82.12
2022-09-30T00:12:29.161Z,82.15
2022-09-30T00:17:31.348Z,81.96
2022-09-30T00:22:33.572Z,81.85
2022-09-30T00:27:35.755Z,81.90
2022-09-30T00:32:37.932Z,82.06
2022-09-30T00:37:40.242Z,81.90
2022-09-30T00:42:42.677Z,82.09
2022-09-30T00:47:54.428Z,82.66
2022-09-30T00:53:06.089Z,82.43
2022-09-30T00:58:10.304Z,82.33
2022-09-30T01:03:12.482Z,82.10
2022-09-30T01:08:14.768Z,82.54
2022-09-30T01:13:18.534Z,82.23
2022-09-30T01:18:52.274Z,82.54
2022-09-30T01:23:58.182Z,82.27
2022-09-30T01:29:09.477Z,82.65
2022-09-30T01:34:39.683Z,82.57
2022-09-30T01:39:53.950Z,82.66
2022-09-30T01:45:05.125Z,82.37
2022-09-30T01:50:21.746Z,82.39
2022-09-30T01:55:36.829Z,82.99
2022-09-30T02:00:42.447Z,82.49
2022-09-30T02:05:51.293Z,82.35
2022-09-30T02:10:58.747Z,82.64
2022-09-30T02:16:13.081Z,82.48
2022-09-30T02:21:20.246Z,82.77
2022-09-30T02:26:25.401Z,82.59
2022-09-30T02:31:28.902Z,82.53
2022-09-30T02:36:49.579Z,82.45
2022-09-30T02:41:55.928Z,82.44
2022-09-30T02:47:31.899Z,82.38
2022-09-30T02:52:46.086Z,82.30
2022-09-30T02:58:00.657Z,82.34
2022-09-30T03:03:07.957Z,82.12
2022-09-30T03:08:11.183Z,82.17
2022-09-30T03:13:40.048Z,82.19
2022-09-30T03:18:54.230Z,82.38
2022-09-30T03:24:33.406Z,82.35
2022-09-30T03:30:06.360Z,82.45
2022-09-30T03:35:47.084Z,82.40
2022-09-30T03:41:10.896Z,82.71
2022-09-30T03:46:26.738Z,82.45
2022-09-30T03:51:31.722Z,82.21
2022-09-30T03:56:33.935Z,82.23
2022-09-30T04:01:52.079Z,82.50
2022-09-30T04:07:01.510Z,82.33
2022-09-30T04:12:04.874Z,82.13
2022-09-30T04:17:07.291Z,82.25
2022-09-30T04:22:09.971Z,82.22
2022-09-30T04:27:12.108Z,81.92
2022-09-30T04:32:14.217Z,82.15
2022-09-30T04:37:16.467Z,82.14
2022-09-30T04:42:21.396Z,82.01
2022-09-30T04:47:25.418Z,82.20
2022-09-30T04:52:27.905Z,81.92
2022-09-30T04:57:29.992Z,81.59
2022-09-30T05:02:32.344Z,81.88
2022-09-30T05:07:34.488Z,81.59
2022-09-30T05:12:36.960Z,81.57
2022-09-30T05:17:39.113Z,81.64
2022-09-30T05:22:41.286Z,81.62
2022-09-30T05:27:43.393Z,81.58
2022-09-30T05:32:46.269Z,81.62
2022-09-30T05:37:48.869Z,81.73
2022-09-30T05:42:53.932Z,81.77
2022-09-30T05:47:56.580Z,81.96
2022-09-30T05:52:58.817Z,81.89
2022-09-30T05:58:00.931Z,81.83
2022-09-30T06:03:03.084Z,81.78
2022-09-30T06:08:07.360Z,81.76
2022-09-30T06:13:09.803Z,81.47
2022-09-30T06:18:17.595Z,81.44
2022-09-30T06:23:20.537Z,81.22
2022-09-30T06:28:23.158Z,81.21
2022-09-30T06:33:25.441Z,81.08
2022-09-30T06:38:28.933Z,80.63
2022-09-30T06:43:39.724Z,80.53
2022-09-30T06:48:46.809Z,80.62
2022-09-30T06:53:57.976Z,80.68
2022-09-30T06:59:00.199Z,80.41
2022-09-30T07:04:08.231Z,80.52
2022-09-30T07:09:11.537Z,80.10
2022-09-30T07:14:13.852Z,80.09
2022-09-30T07:19:18.060Z,79.73
2022-09-30T07:24:20.375Z,79.78
2022-09-30T07:29:22.822Z,79.64
2022-09-30T07:34:25.443Z,79.47
2022-09-30T07:39:27.715Z,79.12
2022-09-30T07:44:30.555Z,78.74
2022-09-30T07:49:32.997Z,78.74
2022-09-30T07:54:40.431Z,78.35
2022-09-30T07:59:44.287Z,78.22
2022-09-30T08:04:47.050Z,78.02
2022-09-30T08:09:52.139Z,77.27
2022-09-30T08:14:54.485Z,77.19
2022-09-30T08:19:56.690Z,76.90
2022-09-30T08:24:58.861Z,76.99
2022-09-30T08:30:04.615Z,76.87
2022-09-30T08:35:07.846Z,76.98
2022-09-30T08:40:23.305Z,76.65
2022-09-30T08:45:36.668Z,76.64
2022-09-30T08:51:05.144Z,76.04
2022-09-30T08:56:07.674Z,76.36
2022-09-30T09:01:20.252Z,76.08
2022-09-30T09:06:28.523Z,76.07
2022-09-30T09:12:03.368Z,76.34
2022-09-30T09:17:17.684Z,75.63
2022-09-30T09:22:24.595Z,75.61
2022-09-30T09:32:57.293Z,75.28
2022-09-30T09:38:27.322Z,74.99
2022-09-30T09:43:46.379Z,74.89
2022-09-30T09:48:49.835Z,74.95
2022-09-30T09:53:54.084Z,74.57
2022-09-30T09:59:10.974Z,73.87
2022-09-30T10:04:27.475Z,74.12
2022-09-30T10:09:38.269Z,74.04
2022-09-30T10:14:58.661Z,74.05
2022-09-30T10:20:16.116Z,73.46
2022-09-30T10:25:22.241Z,73.84
2022-09-30T10:30:57.829Z,73.52
2022-09-30T10:36:13.987Z,73.53
2022-09-30T10:41:23.495Z,73.68
2022-09-30T10:46:36.001Z,73.82
2022-09-30T10:51:38.855Z,73.61
2022-09-30T10:56:44.493Z,73.11
2022-09-30T11:02:11.419Z,72.83
2022-09-30T11:07:45.024Z,73.18
2022-09-30T11:13:00.167Z,73.07
2022-09-30T11:18:11.419Z,73.07
2022-09-30T11:23:28.206Z,73.66
2022-09-30T11:28:36.897Z,73.03
2022-09-30T11:33:48.220Z,73.10
2022-09-30T11:39:29.564Z,73.06
2022-09-30T11:44:37.129Z,72.97
2022-09-30T11:49:48.456Z,73.45
2022-09-30T11:54:59.738Z,73.13
2022-09-30T12:00:08.819Z,73.39
2022-09-30T12:05:23.390Z,73.35
2022-09-30T12:10:36.243Z,73.19
2022-09-30T12:15:42.122Z,73.65
2022-09-30T12:21:17.045Z,74.16
2022-09-30T12:26:19.418Z,73.89
2022-09-30T12:31:46.558Z,74.06
2022-09-30T12:37:13.730Z,74.45
2022-09-30T12:42:58.781Z,74.70
2022-09-30T12:48:05.394Z,74.96
2022-09-30T12:53:22.687Z,75.10
2022-09-30T12:58:31.137Z,74.72
2022-09-30T13:04:09.215Z,75.25
2022-09-30T13:09:17.482Z,75.17
2022-09-30T13:14:27.058Z,75.07
2022-09-30T13:19:41.208Z,75.23
2022-09-30T13:24:59.366Z,75.86
2022-09-30T13:30:22.624Z,75.86
2022-09-30T13:35:43.601Z,76.39
2022-09-30T13:41:19.072Z,76.33
2022-09-30T13:46:21.291Z,75.89
2022-09-30T13:51:26.315Z,76.81
2022-09-30T13:56:34.243Z,76.71
2022-09-30T14:01:37.833Z,77.20
2022-09-30T14:07:11.529Z,78.29
2022-09-30T14:12:32.122Z,78.38
2022-09-30T14:18:17.739Z,79.55
2022-09-30T14:23:22.173Z,78.82
2022-09-30T14:28:48.423Z,80.84
2022-09-30T14:33:50.950Z,80.00
2022-09-30T14:38:58.978Z,80.83
2022-09-30T14:44:08.412Z,80.85
2022-09-30T14:49:14.960Z,81.36
2022-09-30T14:54:20.154Z,81.23
2022-09-30T14:59:27.252Z,81.64
2022-09-30T15:04:34.242Z,81.87
2022-09-30T15:09:39.615Z,81.94
2022-09-30T15:14:53.043Z,82.74
2022-09-30T15:19:57.190Z,82.05
2022-09-30T15:24:59.993Z,82.02
2022-09-30T15:30:05.708Z,82.34
2022-09-30T15:35:14.888Z,82.87
2022-09-30T15:40:38.602Z,83.07
2022-09-30T15:45:43.578Z,83.01
2022-09-30T15:50:50.515Z,83.79
2022-09-30T15:56:00.254Z,84.07
2022-09-30T16:01:27.030Z,83.99
2022-09-30T16:06:43.600Z,83.86
2022-09-30T16:12:02.080Z,84.18
2022-09-30T16:17:05.759Z,83.74
2022-09-30T16:22:48.570Z,84.71
2022-09-30T16:28:12.617Z,84.54
2022-09-30T16:33:16.071Z,84.05
2022-09-30T16:38:18.873Z,83.98
2022-09-30T16:43:21.177Z,84.12
2022-09-30T16:48:23.891Z,84.08
2022-09-30T16:53:26.169Z,84.34
2022-09-30T16:58:28.624Z,84.59
2022-09-30T17:03:32.603Z,84.29
2022-09-30T17:08:34.858Z,84.42
2022-09-30T17:13:37.732Z,84.18
2022-09-30T17:18:40.620Z,84.46
2022-09-30T17:23:42.973Z,84.57
2022-09-30T17:28:45.447Z,84.77
2022-09-30T17:33:49.870Z,84.39
2022-09-30T17:38:55.256Z,84.48
2022-09-30T17:44:02.773Z,84.40
2022-09-30T17:49:06.427Z,84.37
2022-09-30T17:54:10.833Z,84.68
2022-09-30T17:59:13.099Z,84.61
2022-09-30T18:04:15.354Z,84.67
2022-09-30T18:09:17.693Z,84.75
2022-09-30T18:14:23.012Z,85.01
2022-09-30T18:19:25.548Z,84.71
2022-09-30T18:24:46.127Z,84.59
2022-09-30T18:29:49.285Z,85.05
2022-09-30T18:34:51.577Z,84.72
2022-09-30T18:39:53.977Z,84.74
2022-09-30T18:44:56.551Z,85.02
2022-09-30T18:49:59.311Z,84.99
2022-09-30T18:55:01.786Z,85.23
2022-09-30T19:00:09.940Z,85.16
2022-09-30T19:05:15.321Z,84.78
2022-09-30T19:10:19.027Z,84.83
2022-09-30T19:15:23.540Z,84.95
2022-09-30T19:20:29.756Z,84.96
2022-09-30T19:25:35.012Z,84.99
2022-09-30T19:30:42.225Z,84.92
2022-09-30T19:35:44.374Z,85.43
2022-09-30T19:40:55.219Z,85.65
2022-09-30T19:45:59.491Z,84.93
2022-09-30T19:51:10.924Z,85.18
2022-09-30T19:56:17.859Z,85.30
2022-09-30T20:01:22.451Z,85.33
2022-09-30T20:06:28.332Z,85.44
2022-09-30T20:11:36.200Z,85.59
2022-09-30T20:16:42.021Z,85.44
2022-09-30T20:21:44.982Z,85.72
2022-09-30T20:26:47.767Z,85.53
2022-09-30T20:31:50.829Z,85.65
2022-09-30T20:36:53.161Z,85.48
2022-09-30T20:41:56.052Z,85.51
2022-09-30T20:46:58.623Z,85.27
2022-09-30T20:52:04.124Z,85.02
2022-09-30T20:57:07.796Z,84.87
2022-09-30T21:02:14.267Z,85.04
2022-09-30T21:07:19.414Z,85.17
2022-09-30T21:12:23.110Z,84.47
2022-09-30T21:17:25.267Z,84.71
2022-09-30T21:22:29.261Z,84.80
2022-09-30T21:27:32.290Z,84.92
2022-09-30T21:32:35.176Z,84.99
2022-09-30T21:37:37.534Z,84.89
2022-09-30T21:42:39.832Z,84.98
2022-09-30T21:47:44.855Z,85.04
2022-09-30T21:52:47.672Z,84.70
2022-09-30T21:57:49.977Z,84.74
2022-09-30T22:02:52.194Z,84.89
2022-09-30T22:07:55.713Z,84.82
2022-09-30T22:12:57.999Z,84.51
2022-09-30T22:18:00.713Z,84.80
2022-09-30T22:23:02.894Z,84.77
2022-09-30T22:28:05.630Z,84.93
2022-09-30T22:33:26.227Z,85.00
2022-09-30T22:38:28.511Z,84.84
2022-09-30T22:43:32.936Z,84.98
2022-09-30T22:48:35.847Z,84.67
2022-09-30T22:53:38.883Z,84.87
2022-09-30T22:58:41.022Z,85.04
2022-09-30T23:03:45.944Z,85.02
2022-09-30T23:08:48.185Z,85.05
2022-09-30T23:13:53.493Z,84.77
2022-09-30T23:18:59.173Z,84.91
2022-09-30T23:24:02.176Z,84.97
2022-09-30T23:29:06.919Z,85.11
2022-09-30T23:34:09.427Z,85.13
2022-09-30T23:39:20.476Z,84.84
2022-09-30T23:44:24.663Z,85.02
2022-09-30T23:49:26.784Z,85.08
2022-09-30T23:54:29.158Z,85.42
2022-09-30T23:59:32.071Z,85.35
